sensor_id;sensor_type;location;lat;lon;timestamp;P1;durP1;ratioP1;P2;durP2;ratioP2
61675;SDS011;47574;52.090;5.244;2023-02-03T00:01:10;16.11;;;3.7;;
61675;SDS011;47574;52.090;5.244;2023-02-03T00:02:46;13.0;;;3.2;;
61675;SDS011;47574;52.090;5.244;2023-02-03T00:04:22;14.3;;;3.7;;
61675;SDS011;47574;52.090;5.244;2023-02-03T00:05:59;17.11;;;3.8;;
61675;SDS011;47574;52.090;5.244;2023-02-03T00:09:14;14.9;;;3.5;;
61675;SDS011;47574;52.090;5.244;2023-02-03T00:10:50;14.7;;;3.7;;
61675;SDS011;47574;52.090;5.244;2023-02-03T00:12:26;18.11;;;3.5;;
61675;SDS011;47574;52.090;5.244;2023-02-03T00:15:41;18.8;;;4.1;;
61675;SDS011;47574;52.090;5.244;2023-02-03T00:17:17;17.2;;;3.8;;
61675;SDS011;47574;52.090;5.244;2023-02-03T00:18:54;14.3;;;3.4;;
61675;SDS011;47574;52.090;5.244;2023-02-03T00:20:30;16.4;;;4.2;;
61675;SDS011;47574;52.090;5.244;2023-02-03T00:23:43;16.0;;;3.8;;
61675;SDS011;47574;52.090;5.244;2023-02-03T00:25:20;13.5;;;3.3;;
61675;SDS011;47574;52.090;5.244;2023-02-03T00:26:57;12.5;;;3.3;;
61675;SDS011;47574;52.090;5.244;2023-02-03T00:30:10;15.6;;;3.9;;
61675;SDS011;47574;52.090;5.244;2023-02-03T00:31:47;14.0;;;3.4;;
61675;SDS011;47574;52.090;5.244;2023-02-03T00:33:23;14.9;;;3.8;;
61675;SDS011;47574;52.090;5.244;2023-02-03T00:36:36;15.4;;;4.0;;
61675;SDS011;47574;52.090;5.244;2023-02-03T00:38:13;16.0;;;4.2;;
61675;SDS011;47574;52.090;5.244;2023-02-03T00:39:49;17.3;;;3.7;;
61675;SDS011;47574;52.090;5.244;2023-02-03T00:41:27;15.8;;;3.6;;
61675;SDS011;47574;52.090;5.244;2023-02-03T00:44:40;15.0;;;3.4;;
61675;SDS011;47574;52.090;5.244;2023-02-03T00:46:16;14.5;;;3.4;;
61675;SDS011;47574;52.090;5.244;2023-02-03T00:47:53;15.3;;;3.7;;
61675;SDS011;47574;52.090;5.244;2023-02-03T00:51:05;16.8;;;3.6;;
61675;SDS011;47574;52.090;5.244;2023-02-03T00:52:42;16.61;;;4.1;;
61675;SDS011;47574;52.090;5.244;2023-02-03T00:54:18;14.3;;;3.2;;
61675;SDS011;47574;52.090;5.244;2023-02-03T00:57:32;16.2;;;3.5;;
61675;SDS011;47574;52.090;5.244;2023-02-03T00:59:08;12.2;;;3.3;;
61675;SDS011;47574;52.090;5.244;2023-02-03T01:00:44;15.5;;;3.3;;
61675;SDS011;47574;52.090;5.244;2023-02-03T01:02:20;16.7;;;4.3;;
61675;SDS011;47574;52.090;5.244;2023-02-03T01:05:35;18.0;;;4.41;;
61675;SDS011;47574;52.090;5.244;2023-02-03T01:07:12;12.2;;;2.9;;
61675;SDS011;47574;52.090;5.244;2023-02-03T01:08:48;17.61;;;4.0;;
61675;SDS011;47574;52.090;5.244;2023-02-03T01:12:01;14.6;;;3.2;;
61675;SDS011;47574;52.090;5.244;2023-02-03T01:13:38;14.4;;;3.2;;
61675;SDS011;47574;52.090;5.244;2023-02-03T01:15:15;11.2;;;3.3;;
61675;SDS011;47574;52.090;5.244;2023-02-03T01:18:28;12.1;;;3.3;;
61675;SDS011;47574;52.090;5.244;2023-02-03T01:20:04;14.5;;;3.2;;
61675;SDS011;47574;52.090;5.244;2023-02-03T01:21:41;13.7;;;3.1;;
61675;SDS011;47574;52.090;5.244;2023-02-03T01:23:18;12.5;;;3.5;;
61675;SDS011;47574;52.090;5.244;2023-02-03T01:26:31;15.4;;;3.0;;
61675;SDS011;47574;52.090;5.244;2023-02-03T01:28:07;9.1;;;2.6;;
61675;SDS011;47574;52.090;5.244;2023-02-03T01:29:43;14.2;;;3.6;;
61675;SDS011;47574;52.090;5.244;2023-02-03T01:32:58;13.1;;;3.2;;
61675;SDS011;47574;52.090;5.244;2023-02-03T01:34:34;13.9;;;3.1;;
61675;SDS011;47574;52.090;5.244;2023-02-03T01:36:11;13.5;;;2.8;;
61675;SDS011;47574;52.090;5.244;2023-02-03T01:39:25;13.7;;;3.0;;
61675;SDS011;47574;52.090;5.244;2023-02-03T01:41:01;12.2;;;3.3;;
61675;SDS011;47574;52.090;5.244;2023-02-03T01:42:39;12.4;;;3.1;;
61675;SDS011;47574;52.090;5.244;2023-02-03T01:44:47;16.11;;;3.3;;
61675;SDS011;47574;52.090;5.244;2023-02-03T01:46:27;12.1;;;2.7;;
61675;SDS011;47574;52.090;5.244;2023-02-03T01:49:45;10.8;;;2.6;;
61675;SDS011;47574;52.090;5.244;2023-02-03T01:51:27;12.4;;;2.8;;
61675;SDS011;47574;52.090;5.244;2023-02-03T01:53:05;12.9;;;2.8;;
61675;SDS011;47574;52.090;5.244;2023-02-03T01:54:46;13.2;;;2.9;;
61675;SDS011;47574;52.090;5.244;2023-02-03T01:58:07;13.3;;;3.2;;
61675;SDS011;47574;52.090;5.244;2023-02-03T01:59:50;14.9;;;3.0;;
61675;SDS011;47574;52.090;5.244;2023-02-03T02:01:32;14.0;;;3.1;;
61675;SDS011;47574;52.090;5.244;2023-02-03T02:03:10;14.6;;;3.0;;
61675;SDS011;47574;52.090;5.244;2023-02-03T02:06:31;15.4;;;3.0;;
61675;SDS011;47574;52.090;5.244;2023-02-03T02:08:07;12.8;;;2.5;;
61675;SDS011;47574;52.090;5.244;2023-02-03T02:09:46;10.4;;;2.4;;
61675;SDS011;47574;52.090;5.244;2023-02-03T02:11:23;13.8;;;3.2;;
61675;SDS011;47574;52.090;5.244;2023-02-03T02:14:38;11.8;;;3.0;;
61675;SDS011;47574;52.090;5.244;2023-02-03T02:16:19;11.3;;;2.5;;
61675;SDS011;47574;52.090;5.244;2023-02-03T02:18:08;12.9;;;2.8;;
61675;SDS011;47574;52.090;5.244;2023-02-03T02:20:05;7.1;;;2.5;;
61675;SDS011;47574;52.090;5.244;2023-02-03T02:23:06;12.8;;;3.0;;
61675;SDS011;47574;52.090;5.244;2023-02-03T02:25:08;13.3;;;2.9;;
61675;SDS011;47574;52.090;5.244;2023-02-03T02:30:51;14.9;;;3.0;;
61675;SDS011;47574;52.090;5.244;2023-02-03T02:32:53;12.7;;;2.4;;
61675;SDS011;47574;52.090;5.244;2023-02-03T02:34:40;13.3;;;2.7;;
61675;SDS011;47574;52.090;5.244;2023-02-03T02:38:10;12.2;;;2.7;;
61675;SDS011;47574;52.090;5.244;2023-02-03T02:39:57;10.6;;;3.0;;
61675;SDS011;47574;52.090;5.244;2023-02-03T02:41:43;12.0;;;2.7;;
61675;SDS011;47574;52.090;5.244;2023-02-03T02:43:27;12.0;;;2.7;;
61675;SDS011;47574;52.090;5.244;2023-02-03T02:45:15;12.6;;;2.7;;
61675;SDS011;47574;52.090;5.244;2023-02-03T02:46:59;9.71;;;2.31;;
61675;SDS011;47574;52.090;5.244;2023-02-03T02:50:23;11.8;;;2.9;;
61675;SDS011;47574;52.090;5.244;2023-02-03T02:52:07;11.9;;;2.5;;
61675;SDS011;47574;52.090;5.244;2023-02-03T02:53:48;10.8;;;2.31;;
61675;SDS011;47574;52.090;5.244;2023-02-03T02:55:33;9.4;;;2.31;;
61675;SDS011;47574;52.090;5.244;2023-02-03T02:58:54;10.5;;;2.4;;
61675;SDS011;47574;52.090;5.244;2023-02-03T03:00:34;10.21;;;2.31;;
61675;SDS011;47574;52.090;5.244;2023-02-03T03:02:11;9.31;;;2.4;;
61675;SDS011;47574;52.090;5.244;2023-02-03T03:03:48;12.4;;;2.21;;
61675;SDS011;47574;52.090;5.244;2023-02-03T03:07:05;9.71;;;2.4;;
61675;SDS011;47574;52.090;5.244;2023-02-03T03:08:46;10.3;;;2.31;;
61675;SDS011;47574;52.090;5.244;2023-02-03T03:10:28;9.81;;;2.31;;
61675;SDS011;47574;52.090;5.244;2023-02-03T03:12:09;10.7;;;2.7;;
61675;SDS011;47574;52.090;5.244;2023-02-03T03:15:30;12.3;;;2.5;;
61675;SDS011;47574;52.090;5.244;2023-02-03T03:17:09;10.9;;;2.7;;
61675;SDS011;47574;52.090;5.244;2023-02-03T03:18:53;10.7;;;2.31;;
61675;SDS011;47574;52.090;5.244;2023-02-03T03:20:33;11.2;;;2.31;;
61675;SDS011;47574;52.090;5.244;2023-02-03T03:23:53;9.6;;;2.4;;
61675;SDS011;47574;52.090;5.244;2023-02-03T03:25:35;9.81;;;2.5;;
61675;SDS011;47574;52.090;5.244;2023-02-03T03:27:17;13.4;;;2.6;;
61675;SDS011;47574;52.090;5.244;2023-02-03T03:29:01;11.1;;;2.9;;
61675;SDS011;47574;52.090;5.244;2023-02-03T03:32:21;12.8;;;2.7;;
61675;SDS011;47574;52.090;5.244;2023-02-03T03:33:58;10.3;;;2.7;;
61675;SDS011;47574;52.090;5.244;2023-02-03T03:35:36;12.4;;;2.6;;
61675;SDS011;47574;52.090;5.244;2023-02-03T03:37:21;12.5;;;2.6;;
61675;SDS011;47574;52.090;5.244;2023-02-03T03:40:51;10.8;;;2.7;;
61675;SDS011;47574;52.090;5.244;2023-02-03T03:42:37;14.7;;;2.7;;
61675;SDS011;47574;52.090;5.244;2023-02-03T03:44:19;10.1;;;2.21;;
61675;SDS011;47574;52.090;5.244;2023-02-03T03:46:02;12.8;;;2.31;;
61675;SDS011;47574;52.090;5.244;2023-02-03T03:47:46;14.0;;;2.9;;
61675;SDS011;47574;52.090;5.244;2023-02-03T03:51:09;14.0;;;2.9;;
61675;SDS011;47574;52.090;5.244;2023-02-03T03:52:51;9.1;;;2.8;;
61675;SDS011;47574;52.090;5.244;2023-02-03T03:54:30;10.6;;;2.6;;
61675;SDS011;47574;52.090;5.244;2023-02-03T03:56:10;10.8;;;2.6;;
61675;SDS011;47574;52.090;5.244;2023-02-03T03:59:37;11.4;;;2.5;;
61675;SDS011;47574;52.090;5.244;2023-02-03T04:01:17;9.0;;;2.7;;
61675;SDS011;47574;52.090;5.244;2023-02-03T04:02:57;8.9;;;2.6;;
61675;SDS011;47574;52.090;5.244;2023-02-03T04:04:39;8.4;;;2.31;;
61675;SDS011;47574;52.090;5.244;2023-02-03T04:07:53;9.71;;;2.1;;
61675;SDS011;47574;52.090;5.244;2023-02-03T04:09:30;10.7;;;2.1;;
61675;SDS011;47574;52.090;5.244;2023-02-03T04:11:06;7.7;;;2.31;;
61675;SDS011;47574;52.090;5.244;2023-02-03T04:12:43;9.71;;;2.21;;
61675;SDS011;47574;52.090;5.244;2023-02-03T04:15:56;10.5;;;2.31;;
61675;SDS011;47574;52.090;5.244;2023-02-03T04:17:35;8.9;;;2.31;;
61675;SDS011;47574;52.090;5.244;2023-02-03T04:19:10;8.5;;;2.31;;
61675;SDS011;47574;52.090;5.244;2023-02-03T04:22:23;6.5;;;2.0;;
61675;SDS011;47574;52.090;5.244;2023-02-03T04:23:59;7.5;;;2.0;;
61675;SDS011;47574;52.090;5.244;2023-02-03T04:25:36;10.9;;;2.6;;
61675;SDS011;47574;52.090;5.244;2023-02-03T04:28:48;8.71;;;2.0;;
61675;SDS011;47574;52.090;5.244;2023-02-03T04:30:25;10.5;;;2.31;;
61675;SDS011;47574;52.090;5.244;2023-02-03T04:32:02;7.8;;;2.0;;
61675;SDS011;47574;52.090;5.244;2023-02-03T04:33:38;10.8;;;2.31;;
61675;SDS011;47574;52.090;5.244;2023-02-03T04:36:51;7.7;;;2.1;;
61675;SDS011;47574;52.090;5.244;2023-02-03T04:38:27;9.1;;;2.1;;
61675;SDS011;47574;52.090;5.244;2023-02-03T04:40:04;10.0;;;2.1;;
61675;SDS011;47574;52.090;5.244;2023-02-03T04:43:18;8.1;;;2.0;;
61675;SDS011;47574;52.090;5.244;2023-02-03T04:44:54;11.0;;;2.0;;
61675;SDS011;47574;52.090;5.244;2023-02-03T04:46:30;10.3;;;2.4;;
61675;SDS011;47574;52.090;5.244;2023-02-03T04:49:42;9.81;;;2.21;;
61675;SDS011;47574;52.090;5.244;2023-02-03T04:51:19;10.0;;;2.4;;
61675;SDS011;47574;52.090;5.244;2023-02-03T04:52:57;8.71;;;2.0;;
61675;SDS011;47574;52.090;5.244;2023-02-03T04:54:34;13.4;;;2.21;;
61675;SDS011;47574;52.090;5.244;2023-02-03T04:57:48;9.21;;;2.1;;
61675;SDS011;47574;52.090;5.244;2023-02-03T04:59:30;10.8;;;2.31;;
61675;SDS011;47574;52.090;5.244;2023-02-03T05:01:08;8.31;;;2.4;;
61675;SDS011;47574;52.090;5.244;2023-02-03T05:04:21;10.5;;;3.1;;
61675;SDS011;47574;52.090;5.244;2023-02-03T05:05:57;6.2;;;1.6;;
61675;SDS011;47574;52.090;5.244;2023-02-03T05:07:33;7.3;;;1.7;;
61675;SDS011;47574;52.090;5.244;2023-02-03T05:10:45;7.9;;;1.7;;
61675;SDS011;47574;52.090;5.244;2023-02-03T05:12:21;9.4;;;1.9;;
61675;SDS011;47574;52.090;5.244;2023-02-03T05:13:58;8.0;;;1.8;;
61675;SDS011;47574;52.090;5.244;2023-02-03T05:15:34;8.5;;;2.0;;
61675;SDS011;47574;52.090;5.244;2023-02-03T05:18:46;7.1;;;1.9;;
61675;SDS011;47574;52.090;5.244;2023-02-03T05:20:22;9.21;;;2.21;;
61675;SDS011;47574;52.090;5.244;2023-02-03T05:21:58;7.2;;;2.0;;
61675;SDS011;47574;52.090;5.244;2023-02-03T05:25:11;9.31;;;2.21;;
61675;SDS011;47574;52.090;5.244;2023-02-03T05:26:49;10.0;;;2.21;;
61675;SDS011;47574;52.090;5.244;2023-02-03T05:28:25;7.0;;;2.0;;
61675;SDS011;47574;52.090;5.244;2023-02-03T05:31:38;7.4;;;1.8;;
61675;SDS011;47574;52.090;5.244;2023-02-03T05:33:14;8.9;;;1.8;;
61675;SDS011;47574;52.090;5.244;2023-02-03T05:34:52;6.9;;;1.7;;
61675;SDS011;47574;52.090;5.244;2023-02-03T05:36:28;12.2;;;1.9;;
61675;SDS011;47574;52.090;5.244;2023-02-03T05:39:41;7.2;;;1.9;;
61675;SDS011;47574;52.090;5.244;2023-02-03T05:42:21;7.5;;;2.0;;
61675;SDS011;47574;52.090;5.244;2023-02-03T05:43:58;9.0;;;2.0;;
61675;SDS011;47574;52.090;5.244;2023-02-03T05:45:35;8.71;;;2.4;;
61675;SDS011;47574;52.090;5.244;2023-02-03T05:47:12;11.3;;;2.0;;
61675;SDS011;47574;52.090;5.244;2023-02-03T05:50:26;9.4;;;2.4;;
61675;SDS011;47574;52.090;5.244;2023-02-03T05:52:02;7.4;;;1.9;;
61675;SDS011;47574;52.090;5.244;2023-02-03T05:53:39;9.0;;;2.21;;
61675;SDS011;47574;52.090;5.244;2023-02-03T05:55:15;8.71;;;1.9;;
61675;SDS011;47574;52.090;5.244;2023-02-03T05:58:28;9.21;;;1.9;;
61675;SDS011;47574;52.090;5.244;2023-02-03T06:00:06;9.9;;;2.21;;
61675;SDS011;47574;52.090;5.244;2023-02-03T06:01:44;8.9;;;2.1;;
61675;SDS011;47574;52.090;5.244;2023-02-03T06:04:56;10.4;;;2.31;;
61675;SDS011;47574;52.090;5.244;2023-02-03T06:06:32;8.5;;;2.31;;
61675;SDS011;47574;52.090;5.244;2023-02-03T06:11:23;10.6;;;2.31;;
61675;SDS011;47574;52.090;5.244;2023-02-03T06:12:59;8.81;;;2.4;;
61675;SDS011;47574;52.090;5.244;2023-02-03T06:14:44;13.2;;;2.31;;
61675;SDS011;47574;52.090;5.244;2023-02-03T06:16:20;8.71;;;2.21;;
61675;SDS011;47574;52.090;5.244;2023-02-03T06:19:34;10.6;;;2.4;;
61675;SDS011;47574;52.090;5.244;2023-02-03T06:21:10;10.6;;;2.7;;
61675;SDS011;47574;52.090;5.244;2023-02-03T06:22:46;9.71;;;2.4;;
61675;SDS011;47574;52.090;5.244;2023-02-03T06:25:59;10.7;;;2.4;;
61675;SDS011;47574;52.090;5.244;2023-02-03T06:27:35;11.5;;;2.21;;
61675;SDS011;47574;52.090;5.244;2023-02-03T06:29:12;9.1;;;2.4;;
61675;SDS011;47574;52.090;5.244;2023-02-03T06:30:49;11.2;;;2.1;;
61675;SDS011;47574;52.090;5.244;2023-02-03T06:34:02;13.1;;;2.7;;
61675;SDS011;47574;52.090;5.244;2023-02-03T06:35:39;11.7;;;2.4;;
61675;SDS011;47574;52.090;5.244;2023-02-03T06:37:15;10.8;;;2.21;;
61675;SDS011;47574;52.090;5.244;2023-02-03T06:40:30;13.7;;;2.31;;
61675;SDS011;47574;52.090;5.244;2023-02-03T06:42:06;9.81;;;2.7;;
61675;SDS011;47574;52.090;5.244;2023-02-03T06:43:43;10.9;;;2.5;;
61675;SDS011;47574;52.090;5.244;2023-02-03T06:46:55;9.71;;;2.6;;
61675;SDS011;47574;52.090;5.244;2023-02-03T06:48:31;8.9;;;2.7;;
61675;SDS011;47574;52.090;5.244;2023-02-03T06:50:08;10.6;;;2.7;;
61675;SDS011;47574;52.090;5.244;2023-02-03T06:51:46;9.4;;;3.0;;
61675;SDS011;47574;52.090;5.244;2023-02-03T06:54:59;11.1;;;2.7;;
61675;SDS011;47574;52.090;5.244;2023-02-03T06:56:35;11.4;;;2.6;;
61675;SDS011;47574;52.090;5.244;2023-02-03T06:58:12;9.4;;;2.4;;
61675;SDS011;47574;52.090;5.244;2023-02-03T07:01:24;9.0;;;2.21;;
61675;SDS011;47574;52.090;5.244;2023-02-03T07:03:01;9.6;;;2.5;;
61675;SDS011;47574;52.090;5.244;2023-02-03T07:04:38;11.3;;;2.4;;
61675;SDS011;47574;52.090;5.244;2023-02-03T07:07:50;10.6;;;2.31;;
61675;SDS011;47574;52.090;5.244;2023-02-03T07:09:27;11.9;;;2.4;;
61675;SDS011;47574;52.090;5.244;2023-02-03T07:11:03;12.8;;;2.7;;
61675;SDS011;47574;52.090;5.244;2023-02-03T07:12:40;10.5;;;2.31;;
61675;SDS011;47574;52.090;5.244;2023-02-03T07:15:53;11.3;;;2.5;;
61675;SDS011;47574;52.090;5.244;2023-02-03T07:17:29;9.21;;;2.21;;
61675;SDS011;47574;52.090;5.244;2023-02-03T07:19:06;12.1;;;2.8;;
61675;SDS011;47574;52.090;5.244;2023-02-03T07:22:18;11.1;;;2.31;;
61675;SDS011;47574;52.090;5.244;2023-02-03T07:23:54;11.8;;;2.7;;
61675;SDS011;47574;52.090;5.244;2023-02-03T07:25:31;11.8;;;2.21;;
61675;SDS011;47574;52.090;5.244;2023-02-03T07:28:43;11.5;;;2.5;;
61675;SDS011;47574;52.090;5.244;2023-02-03T07:30:20;10.8;;;2.4;;
61675;SDS011;47574;52.090;5.244;2023-02-03T07:31:56;10.0;;;2.7;;
61675;SDS011;47574;52.090;5.244;2023-02-03T07:35:09;8.9;;;2.5;;
61675;SDS011;47574;52.090;5.244;2023-02-03T07:36:45;13.4;;;2.5;;
61675;SDS011;47574;52.090;5.244;2023-02-03T07:38:21;12.5;;;2.5;;
61675;SDS011;47574;52.090;5.244;2023-02-03T07:39:59;14.2;;;2.8;;
61675;SDS011;47574;52.090;5.244;2023-02-03T07:43:11;10.4;;;2.5;;
61675;SDS011;47574;52.090;5.244;2023-02-03T07:44:47;14.2;;;2.9;;
61675;SDS011;47574;52.090;5.244;2023-02-03T07:46:24;12.4;;;3.0;;
61675;SDS011;47574;52.090;5.244;2023-02-03T07:49:36;9.4;;;3.0;;
61675;SDS011;47574;52.090;5.244;2023-02-03T07:51:12;12.6;;;2.7;;
61675;SDS011;47574;52.090;5.244;2023-02-03T07:52:49;11.4;;;2.6;;
61675;SDS011;47574;52.090;5.244;2023-02-03T07:56:02;12.8;;;2.9;;
61675;SDS011;47574;52.090;5.244;2023-02-03T07:57:42;11.1;;;2.8;;
61675;SDS011;47574;52.090;5.244;2023-02-03T07:59:19;9.9;;;2.6;;
61675;SDS011;47574;52.090;5.244;2023-02-03T08:00:55;12.7;;;3.1;;
61675;SDS011;47574;52.090;5.244;2023-02-03T08:04:11;12.1;;;2.5;;
61675;SDS011;47574;52.090;5.244;2023-02-03T08:05:48;11.9;;;3.2;;
61675;SDS011;47574;52.090;5.244;2023-02-03T08:07:25;13.8;;;2.6;;
61675;SDS011;47574;52.090;5.244;2023-02-03T08:10:37;12.6;;;2.9;;
61675;SDS011;47574;52.090;5.244;2023-02-03T08:12:13;11.4;;;3.0;;
61675;SDS011;47574;52.090;5.244;2023-02-03T08:13:50;10.3;;;2.4;;
61675;SDS011;47574;52.090;5.244;2023-02-03T08:15:25;12.3;;;2.7;;
61675;SDS011;47574;52.090;5.244;2023-02-03T08:18:38;11.8;;;2.5;;
61675;SDS011;47574;52.090;5.244;2023-02-03T08:20:15;10.3;;;2.7;;
61675;SDS011;47574;52.090;5.244;2023-02-03T08:21:52;12.7;;;2.4;;
61675;SDS011;47574;52.090;5.244;2023-02-03T08:25:05;15.2;;;2.9;;
61675;SDS011;47574;52.090;5.244;2023-02-03T08:26:41;12.9;;;2.8;;
61675;SDS011;47574;52.090;5.244;2023-02-03T08:28:18;13.6;;;3.3;;
61675;SDS011;47574;52.090;5.244;2023-02-03T08:31:31;12.5;;;2.8;;
61675;SDS011;47574;52.090;5.244;2023-02-03T08:33:07;9.31;;;2.21;;
61675;SDS011;47574;52.090;5.244;2023-02-03T08:34:43;12.2;;;2.7;;
61675;SDS011;47574;52.090;5.244;2023-02-03T08:36:21;13.1;;;2.9;;
61675;SDS011;47574;52.090;5.244;2023-02-03T08:39:34;11.3;;;2.9;;
61675;SDS011;47574;52.090;5.244;2023-02-03T08:41:12;9.81;;;2.31;;
61675;SDS011;47574;52.090;5.244;2023-02-03T08:42:51;12.7;;;2.8;;
61675;SDS011;47574;52.090;5.244;2023-02-03T08:46:06;12.1;;;2.9;;
61675;SDS011;47574;52.090;5.244;2023-02-03T08:47:46;12.2;;;3.0;;
61675;SDS011;47574;52.090;5.244;2023-02-03T08:49:22;13.9;;;2.7;;
61675;SDS011;47574;52.090;5.244;2023-02-03T08:51:00;11.4;;;2.4;;
61675;SDS011;47574;52.090;5.244;2023-02-03T08:54:13;8.6;;;2.7;;
61675;SDS011;47574;52.090;5.244;2023-02-03T08:55:50;12.6;;;2.7;;
61675;SDS011;47574;52.090;5.244;2023-02-03T08:57:30;10.5;;;2.5;;
61675;SDS011;47574;52.090;5.244;2023-02-03T09:00:44;9.31;;;2.6;;
61675;SDS011;47574;52.090;5.244;2023-02-03T09:02:21;7.4;;;2.5;;
61675;SDS011;47574;52.090;5.244;2023-02-03T09:04:00;14.8;;;3.1;;
61675;SDS011;47574;52.090;5.244;2023-02-03T09:05:37;10.3;;;2.6;;
61675;SDS011;47574;52.090;5.244;2023-02-03T09:08:50;10.3;;;2.6;;
61675;SDS011;47574;52.090;5.244;2023-02-03T09:10:27;9.5;;;2.21;;
61675;SDS011;47574;52.090;5.244;2023-02-03T09:12:04;11.4;;;2.6;;
61675;SDS011;47574;52.090;5.244;2023-02-03T09:15:22;9.81;;;2.8;;
61675;SDS011;47574;52.090;5.244;2023-02-03T09:16:58;10.0;;;2.4;;
61675;SDS011;47574;52.090;5.244;2023-02-03T09:18:35;12.7;;;2.6;;
61675;SDS011;47574;52.090;5.244;2023-02-03T09:21:50;13.2;;;3.0;;
61675;SDS011;47574;52.090;5.244;2023-02-03T09:23:27;10.4;;;2.6;;
61675;SDS011;47574;52.090;5.244;2023-02-03T09:25:03;9.4;;;2.6;;
61675;SDS011;47574;52.090;5.244;2023-02-03T09:26:40;13.6;;;3.0;;
61675;SDS011;47574;52.090;5.244;2023-02-03T09:29:52;10.0;;;2.4;;
61675;SDS011;47574;52.090;5.244;2023-02-03T09:31:28;12.1;;;3.3;;
61675;SDS011;47574;52.090;5.244;2023-02-03T09:33:05;10.1;;;2.6;;
61675;SDS011;47574;52.090;5.244;2023-02-03T09:36:17;11.9;;;2.7;;
61675;SDS011;47574;52.090;5.244;2023-02-03T09:37:53;15.2;;;2.5;;
61675;SDS011;47574;52.090;5.244;2023-02-03T09:39:29;12.2;;;2.5;;
61675;SDS011;47574;52.090;5.244;2023-02-03T09:43:09;13.3;;;2.9;;
61675;SDS011;47574;52.090;5.244;2023-02-03T09:45:09;9.9;;;2.1;;
61675;SDS011;47574;52.090;5.244;2023-02-03T09:46:54;10.0;;;2.8;;
61675;SDS011;47574;52.090;5.244;2023-02-03T09:48:35;9.4;;;2.6;;
61675;SDS011;47574;52.090;5.244;2023-02-03T09:51:58;10.4;;;2.5;;
61675;SDS011;47574;52.090;5.244;2023-02-03T09:55:26;8.1;;;2.6;;
61675;SDS011;47574;52.090;5.244;2023-02-03T09:57:12;8.0;;;2.4;;
61675;SDS011;47574;52.090;5.244;2023-02-03T09:58:53;11.2;;;3.3;;
61675;SDS011;47574;52.090;5.244;2023-02-03T10:00:29;13.1;;;2.7;;
61675;SDS011;47574;52.090;5.244;2023-02-03T10:02:14;8.6;;;2.31;;
61675;SDS011;47574;52.090;5.244;2023-02-03T10:06:08;11.2;;;2.5;;
61675;SDS011;47574;52.090;5.244;2023-02-03T10:07:54;14.6;;;2.4;;
61675;SDS011;47574;52.090;5.244;2023-02-03T10:09:42;11.3;;;2.7;;
61675;SDS011;47574;52.090;5.244;2023-02-03T10:11:39;10.6;;;2.7;;
61675;SDS011;47574;52.090;5.244;2023-02-03T10:13:47;8.5;;;2.31;;
61675;SDS011;47574;52.090;5.244;2023-02-03T10:15:44;6.9;;;1.8;;
61675;SDS011;47574;52.090;5.244;2023-02-03T10:17:45;10.3;;;2.6;;
61675;SDS011;47574;52.090;5.244;2023-02-03T10:19:31;10.1;;;2.21;;
61675;SDS011;47574;52.090;5.244;2023-02-03T10:21:23;8.31;;;2.31;;
61675;SDS011;47574;52.090;5.244;2023-02-03T10:23:11;7.2;;;2.21;;
61675;SDS011;47574;52.090;5.244;2023-02-03T10:26:35;7.2;;;2.21;;
61675;SDS011;47574;52.090;5.244;2023-02-03T10:28:15;10.3;;;2.1;;
61675;SDS011;47574;52.090;5.244;2023-02-03T10:29:56;12.8;;;2.7;;
61675;SDS011;47574;52.090;5.244;2023-02-03T10:31:38;8.1;;;2.4;;
61675;SDS011;47574;52.090;5.244;2023-02-03T10:34:54;9.6;;;2.0;;
61675;SDS011;47574;52.090;5.244;2023-02-03T10:36:34;9.4;;;2.5;;
61675;SDS011;47574;52.090;5.244;2023-02-03T10:38:25;9.6;;;2.31;;
61675;SDS011;47574;52.090;5.244;2023-02-03T10:40:20;10.1;;;1.9;;
61675;SDS011;47574;52.090;5.244;2023-02-03T10:42:01;18.0;;;2.5;;
61675;SDS011;47574;52.090;5.244;2023-02-03T10:45:25;11.6;;;2.21;;
61675;SDS011;47574;52.090;5.244;2023-02-03T10:47:01;13.0;;;2.7;;
61675;SDS011;47574;52.090;5.244;2023-02-03T10:48:45;9.81;;;2.8;;
61675;SDS011;47574;52.090;5.244;2023-02-03T10:50:23;10.6;;;2.4;;
61675;SDS011;47574;52.090;5.244;2023-02-03T10:53:39;9.21;;;2.4;;
61675;SDS011;47574;52.090;5.244;2023-02-03T10:55:31;11.1;;;2.31;;
61675;SDS011;47574;52.090;5.244;2023-02-03T10:57:09;10.8;;;2.4;;
61675;SDS011;47574;52.090;5.244;2023-02-03T10:58:50;11.6;;;2.6;;
61675;SDS011;47574;52.090;5.244;2023-02-03T11:02:09;9.21;;;2.5;;
61675;SDS011;47574;52.090;5.244;2023-02-03T11:04:04;11.5;;;2.5;;
61675;SDS011;47574;52.090;5.244;2023-02-03T11:05:42;10.9;;;2.4;;
61675;SDS011;47574;52.090;5.244;2023-02-03T11:07:22;10.9;;;2.4;;
61675;SDS011;47574;52.090;5.244;2023-02-03T11:11:00;10.9;;;2.8;;
61675;SDS011;47574;52.090;5.244;2023-02-03T11:12:38;10.1;;;2.7;;
61675;SDS011;47574;52.090;5.244;2023-02-03T11:14:15;7.5;;;2.4;;
61675;SDS011;47574;52.090;5.244;2023-02-03T11:15:54;10.7;;;2.7;;
61675;SDS011;47574;52.090;5.244;2023-02-03T11:17:34;10.1;;;2.9;;
61675;SDS011;47574;52.090;5.244;2023-02-03T11:20:52;9.1;;;2.4;;
61675;SDS011;47574;52.090;5.244;2023-02-03T11:22:29;7.8;;;2.7;;
61675;SDS011;47574;52.090;5.244;2023-02-03T11:24:11;12.7;;;2.6;;
61675;SDS011;47574;52.090;5.244;2023-02-03T11:25:54;9.71;;;2.7;;
61675;SDS011;47574;52.090;5.244;2023-02-03T11:29:14;8.71;;;2.5;;
61675;SDS011;47574;52.090;5.244;2023-02-03T11:30:54;12.2;;;2.6;;
61675;SDS011;47574;52.090;5.244;2023-02-03T11:32:32;11.7;;;2.8;;
61675;SDS011;47574;52.090;5.244;2023-02-03T11:34:13;9.5;;;2.6;;
61675;SDS011;47574;52.090;5.244;2023-02-03T11:37:33;9.5;;;2.6;;
61675;SDS011;47574;52.090;5.244;2023-02-03T11:39:17;12.7;;;3.0;;
61675;SDS011;47574;52.090;5.244;2023-02-03T11:40:59;7.7;;;2.21;;
61675;SDS011;47574;52.090;5.244;2023-02-03T11:42:41;12.6;;;3.9;;
61675;SDS011;47574;52.090;5.244;2023-02-03T11:45:59;11.2;;;2.7;;
61675;SDS011;47574;52.090;5.244;2023-02-03T11:47:42;10.1;;;2.8;;
61675;SDS011;47574;52.090;5.244;2023-02-03T11:51:55;10.6;;;2.9;;
61675;SDS011;47574;52.090;5.244;2023-02-03T11:53:45;10.6;;;2.9;;
61675;SDS011;47574;52.090;5.244;2023-02-03T11:55:40;9.31;;;2.4;;
61675;SDS011;47574;52.090;5.244;2023-02-03T11:57:31;10.1;;;2.6;;
61675;SDS011;47574;52.090;5.244;2023-02-03T11:59:24;10.1;;;2.4;;
61675;SDS011;47574;52.090;5.244;2023-02-03T12:03:16;9.1;;;2.5;;
61675;SDS011;47574;52.090;5.244;2023-02-03T12:05:32;12.0;;;2.9;;
61675;SDS011;47574;52.090;5.244;2023-02-03T12:07:28;8.9;;;2.21;;
61675;SDS011;47574;52.090;5.244;2023-02-03T12:10:13;9.31;;;2.6;;
61675;SDS011;47574;52.090;5.244;2023-02-03T12:12:11;12.4;;;2.7;;
61675;SDS011;47574;52.090;5.244;2023-02-03T12:15:03;12.1;;;2.6;;
61675;SDS011;47574;52.090;5.244;2023-02-03T12:17:03;10.21;;;2.5;;
61675;SDS011;47574;52.090;5.244;2023-02-03T12:19:04;11.0;;;2.7;;
61675;SDS011;47574;52.090;5.244;2023-02-03T12:20:53;10.6;;;2.7;;
61675;SDS011;47574;52.090;5.244;2023-02-03T12:22:45;10.5;;;2.7;;
61675;SDS011;47574;52.090;5.244;2023-02-03T12:24:33;10.4;;;2.5;;
61675;SDS011;47574;52.090;5.244;2023-02-03T12:28:05;12.6;;;2.6;;
61675;SDS011;47574;52.090;5.244;2023-02-03T12:29:57;11.4;;;2.7;;
61675;SDS011;47574;52.090;5.244;2023-02-03T12:31:38;14.5;;;2.8;;
61675;SDS011;47574;52.090;5.244;2023-02-03T12:33:22;11.2;;;2.31;;
61675;SDS011;47574;52.090;5.244;2023-02-03T12:35:09;10.6;;;2.4;;
61675;SDS011;47574;52.090;5.244;2023-02-03T12:38:37;11.4;;;2.8;;
61675;SDS011;47574;52.090;5.244;2023-02-03T12:40:20;11.4;;;2.8;;
61675;SDS011;47574;52.090;5.244;2023-02-03T12:42:12;12.3;;;2.9;;
61675;SDS011;47574;52.090;5.244;2023-02-03T12:43:57;10.1;;;2.9;;
61675;SDS011;47574;52.090;5.244;2023-02-03T12:45:37;14.1;;;3.0;;
61675;SDS011;47574;52.090;5.244;2023-02-03T12:49:02;12.7;;;3.3;;
61675;SDS011;47574;52.090;5.244;2023-02-03T12:50:49;12.9;;;3.7;;
61675;SDS011;47574;52.090;5.244;2023-02-03T12:52:31;12.7;;;3.0;;
61675;SDS011;47574;52.090;5.244;2023-02-03T12:54:20;10.9;;;3.3;;
61675;SDS011;47574;52.090;5.244;2023-02-03T12:56:10;15.6;;;3.4;;
61675;SDS011;47574;52.090;5.244;2023-02-03T12:57:55;12.1;;;3.3;;
61675;SDS011;47574;52.090;5.244;2023-02-03T13:01:17;12.2;;;3.7;;